createdAt,value
2023-02-04T00:00:31.329Z,96.80
2023-02-04T00:03:22.498Z,96.80
2023-02-04T00:05:53.474Z,96.90
2023-02-04T00:08:24.580Z,96.90
2023-02-04T00:10:56.127Z,96.90
2023-02-04T00:13:26.704Z,97.00
2023-02-04T00:16:00.250Z,97.00
2023-02-04T00:18:31.232Z,97.20
2023-02-04T00:21:02.147Z,97.30
2023-02-04T00:23:32.629Z,97.40
2023-02-04T00:26:03.497Z,97.30
2023-02-04T00:28:35.054Z,97.30
2023-02-04T00:31:08.859Z,97.30
2023-02-04T00:33:39.362Z,97.30
2023-02-04T00:36:10.789Z,97.30
2023-02-04T00:38:41.310Z,97.30
2023-02-04T00:41:12.125Z,97.30
2023-02-04T00:43:42.818Z,97.30
2023-02-04T00:46:16.621Z,97.30
2023-02-04T00:48:47.060Z,97.30
2023-02-04T00:51:17.893Z,97.30
2023-02-04T00:53:48.507Z,97.40
2023-02-04T00:56:20.194Z,97.40
2023-02-04T00:58:50.783Z,97.40
2023-02-04T01:01:24.334Z,97.40
2023-02-04T01:03:55.010Z,97.40
2023-02-04T01:06:28.211Z,97.50
2023-02-04T01:08:59.935Z,97.50
2023-02-04T01:11:30.831Z,97.50
2023-02-04T01:14:01.546Z,97.50
2023-02-04T01:16:35.551Z,97.60
2023-02-04T01:19:06.185Z,97.90
2023-02-04T01:21:37.063Z,97.60
2023-02-04T01:24:07.595Z,97.60
2023-02-04T01:26:58.419Z,97.60
2023-02-04T01:29:28.885Z,97.50
2023-02-04T01:32:02.520Z,97.50
2023-02-04T01:34:34.508Z,97.60
2023-02-04T01:37:05.357Z,97.50
2023-02-04T01:39:37.101Z,97.40
2023-02-04T01:42:08.366Z,97.30
2023-02-04T01:44:39.697Z,97.20
2023-02-04T01:47:13.531Z,97.20
2023-02-04T01:49:44.217Z,97.30
2023-02-04T01:52:15.504Z,97.30
2023-02-04T01:54:46.725Z,97.30
2023-02-04T01:57:18.619Z,97.30
2023-02-04T01:59:50.478Z,97.20
2023-02-04T02:02:36.293Z,97.30
2023-02-04T02:05:10.319Z,97.50
2023-02-04T02:07:41.311Z,97.70
2023-02-04T02:10:13.297Z,97.80
2023-02-04T02:12:44.741Z,97.90
2023-02-04T02:15:16.260Z,98.00
2023-02-04T02:17:47.552Z,98.10
2023-02-04T02:20:22.080Z,98.30
2023-02-04T02:22:57.205Z,98.30
2023-02-04T02:25:30.536Z,98.40
2023-02-04T02:28:02.011Z,98.40
2023-02-04T02:30:32.970Z,98.50
2023-02-04T02:33:04.073Z,98.60
2023-02-04T02:35:34.611Z,98.60
2023-02-04T02:38:05.449Z,98.70
2023-02-04T02:40:41.760Z,98.70
2023-02-04T02:43:13.570Z,98.80
2023-02-04T02:45:44.779Z,98.70
2023-02-04T02:48:15.883Z,98.70
2023-02-04T02:50:46.629Z,98.60
2023-02-04T02:53:18.639Z,98.40
2023-02-04T02:55:52.354Z,98.40
2023-02-04T02:58:29.262Z,98.30
2023-02-04T03:01:00.398Z,98.30
2023-02-04T03:03:33.284Z,98.10
2023-02-04T03:06:05.196Z,98.00
2023-02-04T03:08:36.616Z,97.80
2023-02-04T03:11:10.042Z,97.60
2023-02-04T03:13:41.653Z,97.50
2023-02-04T03:16:12.331Z,97.50
2023-02-04T03:18:43.312Z,97.40
2023-02-04T03:21:15.420Z,97.30
2023-02-04T03:23:46.386Z,97.20
2023-02-04T03:26:20.132Z,97.00
2023-02-04T03:28:50.944Z,96.80
2023-02-04T03:31:21.561Z,96.80
2023-02-04T03:33:52.478Z,96.70
2023-02-04T03:36:22.988Z,96.30
2023-02-04T03:38:55.222Z,96.30
2023-02-04T03:41:28.524Z,96.20
2023-02-04T03:43:59.430Z,96.10
2023-02-04T03:46:30.743Z,96.00
2023-02-04T03:49:01.604Z,96.00
2023-02-04T03:51:32.065Z,96.10
2023-02-04T03:54:03.208Z,96.00
2023-02-04T03:56:36.324Z,96.10
2023-02-04T03:59:07.127Z,95.90
2023-02-04T04:01:38.228Z,96.20
2023-02-04T04:04:08.990Z,96.30
2023-02-04T04:06:40.006Z,96.50
2023-02-04T04:09:10.876Z,96.30
2023-02-04T04:11:44.377Z,96.20
2023-02-04T04:14:15.217Z,96.20
2023-02-04T04:16:45.760Z,96.30
2023-02-04T04:19:16.662Z,96.40
2023-02-04T04:21:47.150Z,96.30
2023-02-04T04:24:18.084Z,96.50
2023-02-04T04:26:51.933Z,96.60
2023-02-04T04:29:24.800Z,96.80
2023-02-04T04:31:55.418Z,96.70
2023-02-04T04:34:26.369Z,96.70
2023-02-04T04:36:56.986Z,96.30
2023-02-04T04:39:27.896Z,96.00
2023-02-04T04:42:00.983Z,95.40
2023-02-04T04:44:31.859Z,95.80
2023-02-04T04:47:03.462Z,95.40
2023-02-04T04:49:34.564Z,95.30
2023-02-04T04:52:05.261Z,95.10
2023-02-04T04:54:36.069Z,95.20
2023-02-04T04:57:09.176Z,95.10
2023-02-04T04:59:40.429Z,95.10
2023-02-04T05:02:10.881Z,95.00
2023-02-04T05:04:42.471Z,94.70
2023-02-04T05:07:12.935Z,94.70
2023-02-04T05:09:44.378Z,94.70
2023-02-04T05:12:17.502Z,94.60
2023-02-04T05:14:48.364Z,94.60
2023-02-04T05:17:18.771Z,94.40
2023-02-04T05:19:49.608Z,94.40
2023-02-04T05:22:20.076Z,94.60
2023-02-04T05:24:51.023Z,94.70
2023-02-04T05:27:24.091Z,94.90
2023-02-04T05:29:55.009Z,94.90
2023-02-04T05:32:25.635Z,95.00
2023-02-04T05:34:56.429Z,95.10
2023-02-04T05:37:27.004Z,95.30
2023-02-04T05:39:57.820Z,95.40
2023-02-04T05:42:30.898Z,95.50
2023-02-04T05:45:01.742Z,95.70
2023-02-04T05:47:32.251Z,95.80
2023-02-04T05:50:03.421Z,95.90
2023-02-04T05:52:34.088Z,96.00
2023-02-04T05:55:04.886Z,96.20
2023-02-04T05:57:38.005Z,96.20
2023-02-04T06:00:10.713Z,96.20
2023-02-04T06:02:43.962Z,96.30
2023-02-04T06:05:15.388Z,96.30
2023-02-04T06:07:45.906Z,96.20
2023-02-04T06:10:16.670Z,96.10
2023-02-04T06:12:49.781Z,96.00
2023-02-04T06:15:21.046Z,96.10
2023-02-04T06:17:51.545Z,96.20
2023-02-04T06:20:22.478Z,96.30
2023-02-04T06:22:56.000Z,96.40
2023-02-04T06:25:27.074Z,96.60
2023-02-04T06:28:00.330Z,96.70
2023-02-04T06:30:32.493Z,96.80
2023-02-04T06:33:03.110Z,96.80
2023-02-04T06:35:33.940Z,96.90
2023-02-04T06:38:04.445Z,96.90
2023-02-04T06:40:35.337Z,97.00
2023-02-04T06:43:08.451Z,97.10
2023-02-04T06:45:39.206Z,97.20
2023-02-04T06:48:09.638Z,97.20
2023-02-04T06:50:40.422Z,97.20
2023-02-04T06:53:11.368Z,97.30
2023-02-04T06:55:42.436Z,97.30
2023-02-04T06:58:15.960Z,97.40
2023-02-04T07:00:47.310Z,97.50
2023-02-04T07:03:18.019Z,97.60
2023-02-04T07:05:48.917Z,97.80
2023-02-04T07:08:19.788Z,98.00
2023-02-04T07:10:51.217Z,98.20
2023-02-04T07:13:25.130Z,98.30
2023-02-04T07:15:56.129Z,98.40
2023-02-04T07:18:26.553Z,98.40
2023-02-04T07:20:57.340Z,98.40
2023-02-04T07:23:28.913Z,98.40
2023-02-04T07:26:00.045Z,98.60
2023-02-04T07:28:33.136Z,98.80
2023-02-04T07:31:04.169Z,98.90
2023-02-04T07:33:34.846Z,98.60
2023-02-04T07:36:06.039Z,98.70
2023-02-04T07:38:36.743Z,98.30
2023-02-04T07:41:07.673Z,98.00
2023-02-04T07:43:40.928Z,98.40
2023-02-04T07:46:11.849Z,98.20
2023-02-04T07:48:42.638Z,97.90
2023-02-04T07:51:13.713Z,97.70
2023-02-04T07:53:44.268Z,97.60
2023-02-04T07:56:15.183Z,96.80
2023-02-04T07:58:48.282Z,97.10
2023-02-04T08:01:19.228Z,96.90
2023-02-04T08:03:50.635Z,97.00
2023-02-04T08:06:21.440Z,97.10
2023-02-04T08:08:51.973Z,97.00
2023-02-04T08:11:22.841Z,97.00
2023-02-04T08:13:56.097Z,96.80
2023-02-04T08:16:26.985Z,96.60
2023-02-04T08:18:57.488Z,96.60
2023-02-04T08:21:28.397Z,96.10
2023-02-04T08:23:58.976Z,95.90
2023-02-04T08:26:30.175Z,96.10
2023-02-04T08:29:03.809Z,96.10
2023-02-04T08:31:35.478Z,94.90
2023-02-04T08:34:07.029Z,93.70
2023-02-04T08:36:37.901Z,93.60
2023-02-04T08:39:08.867Z,93.30
2023-02-04T08:41:39.660Z,91.20
2023-02-04T08:44:12.803Z,90.80
2023-02-04T08:46:43.651Z,90.90
2023-02-04T08:49:14.157Z,91.40
2023-02-04T08:51:45.141Z,90.90
2023-02-04T08:54:15.627Z,88.30
2023-02-04T08:56:46.555Z,83.80
2023-02-04T08:59:19.737Z,84.40
2023-02-04T09:01:52.628Z,83.20
2023-02-04T09:04:23.611Z,82.00
2023-02-04T09:06:54.685Z,81.60
2023-02-04T09:09:26.395Z,80.70
2023-02-04T09:11:57.441Z,80.60
2023-02-04T09:14:30.599Z,81.50
2023-02-04T09:17:01.608Z,82.50
2023-02-04T09:19:32.148Z,81.10
2023-02-04T09:22:03.047Z,81.50
2023-02-04T09:24:33.755Z,81.00
2023-02-04T09:27:04.707Z,81.10
2023-02-04T09:29:38.731Z,82.30
2023-02-04T09:32:09.955Z,81.90
2023-02-04T09:34:40.616Z,82.00
2023-02-04T09:37:11.392Z,82.30
2023-02-04T09:39:41.960Z,82.20
2023-02-04T09:42:13.352Z,82.40
2023-02-04T09:44:47.402Z,82.70
2023-02-04T09:47:18.501Z,82.20
2023-02-04T09:49:48.937Z,82.60
2023-02-04T09:52:21.355Z,82.90
2023-02-04T09:54:51.774Z,82.80
2023-02-04T09:57:23.349Z,83.30
2023-02-04T09:59:56.627Z,82.70
2023-02-04T10:02:28.204Z,83.60
2023-02-04T10:05:00.589Z,83.90
2023-02-04T10:07:32.737Z,84.70
2023-02-04T10:10:03.199Z,84.90
2023-02-04T10:12:33.979Z,85.30
2023-02-04T10:15:11.313Z,86.20
2023-02-04T10:17:42.176Z,86.80
2023-02-04T10:20:16.139Z,87.10
2023-02-04T10:22:47.142Z,87.30
2023-02-04T10:25:18.097Z,87.60
2023-02-04T10:27:53.010Z,87.80
2023-02-04T10:30:27.500Z,89.10
2023-02-04T10:32:58.564Z,89.20
2023-02-04T10:35:29.186Z,89.60
2023-02-04T10:38:07.015Z,89.70
2023-02-04T10:40:38.404Z,89.90
2023-02-04T10:43:13.578Z,89.70
2023-02-04T10:45:47.587Z,89.30
2023-02-04T10:48:19.478Z,89.60
2023-02-04T10:50:50.941Z,88.60
2023-02-04T10:53:34.962Z,87.70
2023-02-04T10:56:05.580Z,88.40
2023-02-04T10:58:36.495Z,89.40
2023-02-04T11:01:12.677Z,89.30
2023-02-04T11:03:45.900Z,89.50
2023-02-04T11:06:20.905Z,89.80
2023-02-04T11:08:53.845Z,89.40
2023-02-04T11:11:25.507Z,89.30
2023-02-04T11:14:04.480Z,89.90
2023-02-04T11:16:38.250Z,90.00
2023-02-04T11:19:10.137Z,89.60
2023-02-04T11:21:47.750Z,90.00
2023-02-04T11:24:25.683Z,90.20
2023-02-04T11:27:07.944Z,89.20
2023-02-04T11:29:39.678Z,88.40
2023-02-04T11:32:29.223Z,88.50
2023-02-04T11:35:10.019Z,87.70
2023-02-04T11:37:41.398Z,86.00
2023-02-04T11:40:23.565Z,85.80
2023-02-04T11:42:59.213Z,85.20
2023-02-04T11:45:32.383Z,86.30
2023-02-04T11:48:07.807Z,83.20
2023-02-04T11:50:38.926Z,83.20
2023-02-04T11:53:09.520Z,80.70
2023-02-04T11:55:47.570Z,80.90
2023-02-04T11:58:19.134Z,81.00
2023-02-04T12:00:50.126Z,80.80
2023-02-04T12:03:26.932Z,76.20
2023-02-04T12:05:58.689Z,75.90
2023-02-04T12:08:30.518Z,74.00
2023-02-04T12:11:07.916Z,76.00
2023-02-04T12:13:49.734Z,73.70
2023-02-04T12:16:20.853Z,74.40
2023-02-04T12:18:55.178Z,74.50
2023-02-04T12:21:27.193Z,74.70
2023-02-04T12:23:59.095Z,74.50
2023-02-04T12:26:30.376Z,76.00
2023-02-04T12:29:03.148Z,76.70
2023-02-04T12:31:34.122Z,77.20
2023-02-04T12:34:07.296Z,78.70
2023-02-04T12:36:38.240Z,81.00
2023-02-04T12:39:10.625Z,84.20
2023-02-04T12:41:41.503Z,87.20
2023-02-04T12:44:12.072Z,88.80
2023-02-04T12:46:42.864Z,89.40
2023-02-04T12:49:15.994Z,88.30
2023-02-04T12:51:46.894Z,88.90
2023-02-04T12:54:17.358Z,89.20
2023-02-04T12:56:49.639Z,89.40
2023-02-04T12:59:20.249Z,89.60
2023-02-04T13:01:51.167Z,88.70
2023-02-04T13:04:24.253Z,88.50
2023-02-04T13:06:55.152Z,88.10
2023-02-04T13:09:25.770Z,88.50
2023-02-04T13:11:57.156Z,88.20
2023-02-04T13:14:28.131Z,88.70
2023-02-04T13:16:58.980Z,88.60
2023-02-04T13:19:32.974Z,86.90
2023-02-04T13:22:04.140Z,88.30
2023-02-04T13:24:35.273Z,88.70
2023-02-04T13:27:06.445Z,92.80
2023-02-04T13:29:37.563Z,92.70
2023-02-04T13:32:08.641Z,91.00
2023-02-04T13:34:42.667Z,91.10
2023-02-04T13:37:13.929Z,90.30
2023-02-04T13:39:44.588Z,90.60
2023-02-04T13:42:16.818Z,90.50
2023-02-04T13:44:47.787Z,90.60
2023-02-04T13:47:19.324Z,90.80
2023-02-04T13:49:52.700Z,91.00
2023-02-04T13:52:27.805Z,91.30
2023-02-04T13:54:58.433Z,91.50
2023-02-04T13:57:31.154Z,92.00
2023-02-04T14:00:01.787Z,92.30
2023-02-04T14:02:33.572Z,92.30
2023-02-04T14:05:06.974Z,92.40
2023-02-04T14:07:38.228Z,92.20
2023-02-04T14:10:10.044Z,92.50
2023-02-04T14:12:42.692Z,92.70
2023-02-04T14:15:14.026Z,93.00
2023-02-04T14:17:49.249Z,93.10
2023-02-04T14:20:28.233Z,93.80
2023-02-04T14:23:00.641Z,94.50
2023-02-04T14:25:32.748Z,94.50
2023-02-04T14:28:04.485Z,94.70
2023-02-04T14:30:37.034Z,94.60
2023-02-04T14:33:09.198Z,94.70
2023-02-04T14:35:43.434Z,94.70
2023-02-04T14:38:16.361Z,94.60
2023-02-04T14:40:47.083Z,94.30
2023-02-04T14:43:17.881Z,94.20
2023-02-04T14:45:48.524Z,94.00
2023-02-04T14:48:19.732Z,94.10
2023-02-04T14:50:52.826Z,93.90
2023-02-04T14:53:23.753Z,93.90
2023-02-04T14:55:54.974Z,94.00
2023-02-04T14:58:27.968Z,93.80
2023-02-04T15:00:58.969Z,93.60
2023-02-04T15:03:30.486Z,93.50
2023-02-04T15:06:04.199Z,93.40
2023-02-04T15:08:35.851Z,93.30
2023-02-04T15:11:06.667Z,92.70
2023-02-04T15:13:38.264Z,92.00
2023-02-04T15:16:09.145Z,92.20
2023-02-04T15:18:40.113Z,92.50
2023-02-04T15:21:15.770Z,92.50
2023-02-04T15:23:48.524Z,92.60
2023-02-04T15:26:19.232Z,92.40
2023-02-04T15:28:51.370Z,92.50
2023-02-04T15:31:22.849Z,92.50
2023-02-04T15:33:54.250Z,92.40
2023-02-04T15:36:28.081Z,92.40
2023-02-04T15:38:59.331Z,92.60
2023-02-04T15:41:30.245Z,92.50
2023-02-04T15:44:01.279Z,92.40
2023-02-04T15:46:32.111Z,92.50
2023-02-04T15:49:04.167Z,92.40
2023-02-04T15:51:37.355Z,92.40
2023-02-04T15:54:08.487Z,92.20
2023-02-04T15:56:39.376Z,92.10
2023-02-04T15:59:11.295Z,92.20
2023-02-04T16:01:41.951Z,92.20
2023-02-04T16:04:13.496Z,92.30
2023-02-04T16:06:57.812Z,92.20
2023-02-04T16:09:29.562Z,92.00
2023-02-04T16:12:00.105Z,92.20
2023-02-04T16:14:31.132Z,92.00
2023-02-04T16:17:01.922Z,92.10
2023-02-04T16:19:33.440Z,91.80
2023-02-04T16:22:06.679Z,91.70
2023-02-04T16:24:38.906Z,91.70
2023-02-04T16:27:09.513Z,91.40
2023-02-04T16:29:40.892Z,91.60
2023-02-04T16:32:11.538Z,92.00
2023-02-04T16:34:43.275Z,92.50
2023-02-04T16:37:16.522Z,93.20
2023-02-04T16:39:48.443Z,93.50
2023-02-04T16:42:19.495Z,93.70
2023-02-04T16:44:51.019Z,93.90
2023-02-04T16:47:21.902Z,94.10
2023-02-04T16:49:53.985Z,94.30
2023-02-04T16:52:27.672Z,94.30
2023-02-04T16:54:59.035Z,94.90
2023-02-04T16:57:29.708Z,94.80
2023-02-04T17:00:00.902Z,94.90
2023-02-04T17:02:34.680Z,94.90
2023-02-04T17:05:06.814Z,95.10
2023-02-04T17:07:40.560Z,95.30
2023-02-04T17:10:11.945Z,95.30
2023-02-04T17:12:42.533Z,95.60
2023-02-04T17:15:14.116Z,95.70
2023-02-04T17:17:45.082Z,95.80
2023-02-04T17:20:16.013Z,95.80
2023-02-04T17:22:49.238Z,96.00
2023-02-04T17:25:20.318Z,96.00
2023-02-04T17:27:51.839Z,96.00
2023-02-04T17:30:23.543Z,96.00
2023-02-04T17:32:54.678Z,96.20
2023-02-04T17:35:26.418Z,96.20
2023-02-04T17:38:01.450Z,96.40
2023-02-04T17:40:32.534Z,96.30
2023-02-04T17:46:12.993Z,96.50
2023-02-04T17:48:43.905Z,96.50
2023-02-04T17:51:15.185Z,96.60
2023-02-04T17:53:48.596Z,96.50
2023-02-04T17:56:21.154Z,96.40
2023-02-04T17:58:52.523Z,96.40
2023-02-04T18:01:25.498Z,96.30
2023-02-04T18:03:56.819Z,96.20
2023-02-04T18:06:29.783Z,96.10
2023-02-04T18:09:05.350Z,96.00
2023-02-04T18:11:39.670Z,95.60
2023-02-04T18:14:15.257Z,95.30
2023-02-04T18:16:47.366Z,94.30
2023-02-04T18:19:20.110Z,94.50
2023-02-04T18:21:51.826Z,94.70
2023-02-04T18:24:27.522Z,94.80
2023-02-04T18:26:59.639Z,94.60
2023-02-04T18:29:34.237Z,94.50
2023-02-04T18:32:06.702Z,94.40
2023-02-04T18:34:38.848Z,94.50
2023-02-04T18:37:24.456Z,94.40
2023-02-04T18:40:00.038Z,94.40
2023-02-04T18:42:31.365Z,94.20
2023-02-04T18:45:03.335Z,94.10
2023-02-04T18:47:36.093Z,94.20
2023-02-04T18:50:19.158Z,94.30
2023-02-04T18:52:50.116Z,94.20
2023-02-04T18:55:26.227Z,94.20
2023-02-04T18:57:57.683Z,94.20
2023-02-04T19:00:32.591Z,94.20
2023-02-04T19:03:05.137Z,94.10
2023-02-04T19:05:37.157Z,94.10
2023-02-04T19:08:20.118Z,94.10
2023-02-04T19:10:54.636Z,94.00
2023-02-04T19:13:27.539Z,93.80
2023-02-04T19:16:00.233Z,93.60
2023-02-04T19:18:32.652Z,93.60
2023-02-04T19:21:11.729Z,93.50
2023-02-04T19:23:42.670Z,93.20
2023-02-04T19:26:30.999Z,93.50
2023-02-04T19:29:02.714Z,93.60
2023-02-04T19:31:36.187Z,93.40
2023-02-04T19:34:21.265Z,93.40
2023-02-04T19:36:51.742Z,93.50
2023-02-04T19:39:30.895Z,93.50
2023-02-04T19:42:03.946Z,93.40
2023-02-04T19:44:43.934Z,93.50
2023-02-04T19:47:22.946Z,93.40
2023-02-04T19:49:54.750Z,93.60
2023-02-04T19:52:38.677Z,93.80
2023-02-04T19:55:25.685Z,93.80
2023-02-04T19:58:00.850Z,93.90
2023-02-04T20:00:39.329Z,93.90
2023-02-04T20:03:35.914Z,93.90
2023-02-04T20:06:21.823Z,94.00
2023-02-04T20:08:56.247Z,94.10
2023-02-04T20:11:38.516Z,94.10
2023-02-04T20:14:23.148Z,94.10
2023-02-04T20:16:57.651Z,94.10
2023-02-04T20:19:38.010Z,94.00
2023-02-04T20:22:27.545Z,94.00
2023-02-04T20:24:59.130Z,94.00
2023-02-04T20:27:30.815Z,93.90
2023-02-04T20:30:21.535Z,93.90
2023-02-04T20:32:54.909Z,94.00
2023-02-04T20:35:40.332Z,94.00
2023-02-04T20:38:13.894Z,94.10
2023-02-04T20:40:44.885Z,94.20
2023-02-04T20:43:19.953Z,94.10
2023-02-04T20:45:55.380Z,94.20
2023-02-04T20:48:31.435Z,94.20
2023-02-04T20:51:04.250Z,94.20
2023-02-04T20:53:42.563Z,94.00
2023-02-04T20:56:22.598Z,94.10
2023-02-04T20:58:53.912Z,93.90
2023-02-04T21:01:34.038Z,93.80
2023-02-04T21:04:18.504Z,93.60
2023-02-04T21:06:49.308Z,93.20
2023-02-04T21:09:25.423Z,93.00
2023-02-04T21:11:56.708Z,93.10
2023-02-04T21:14:28.390Z,93.30
2023-02-04T21:17:02.181Z,93.10
2023-02-04T21:19:34.081Z,93.00
2023-02-04T21:22:04.826Z,93.10
2023-02-04T21:24:35.721Z,93.10
2023-02-04T21:27:07.182Z,93.10
2023-02-04T21:29:38.207Z,93.10
2023-02-04T21:32:11.475Z,92.70
2023-02-04T21:34:42.351Z,92.70
2023-02-04T21:37:13.095Z,92.20
2023-02-04T21:39:44.927Z,92.20
2023-02-04T21:42:15.884Z,92.30
2023-02-04T21:44:47.462Z,92.20
2023-02-04T21:47:20.722Z,92.20
2023-02-04T21:49:52.222Z,92.20
2023-02-04T21:52:23.017Z,92.30
2023-02-04T21:54:54.477Z,92.20
2023-02-04T21:57:25.442Z,92.10
2023-02-04T21:59:57.538Z,91.90
2023-02-04T22:02:31.991Z,91.60
2023-02-04T22:05:07.390Z,91.90
2023-02-04T22:07:39.209Z,92.00
2023-02-04T22:10:11.723Z,91.90
2023-02-04T22:12:43.131Z,91.70
2023-02-04T22:15:14.984Z,91.70
2023-02-04T22:17:48.454Z,91.00
2023-02-04T22:20:19.674Z,91.10
2023-02-04T22:22:51.070Z,91.10
2023-02-04T22:25:22.992Z,91.00
2023-02-04T22:27:53.786Z,90.60
2023-02-04T22:30:25.062Z,90.90
2023-02-04T22:33:00.337Z,90.90
2023-02-04T22:35:35.416Z,90.50
2023-02-04T22:38:06.469Z,90.40
2023-02-04T22:40:38.150Z,90.00
2023-02-04T22:43:13.132Z,89.50
2023-02-04T22:45:44.421Z,89.90
2023-02-04T22:48:17.681Z,89.90
2023-02-04T22:50:49.429Z,89.50
2023-02-04T22:53:20.197Z,89.90
2023-02-04T22:55:51.839Z,90.10
2023-02-04T22:58:22.746Z,88.80
2023-02-04T23:00:54.066Z,88.50
2023-02-04T23:03:27.857Z,89.10
2023-02-04T23:05:58.983Z,89.30
2023-02-04T23:08:30.145Z,88.90
2023-02-04T23:11:01.884Z,89.00
2023-02-04T23:13:33.123Z,88.80
2023-02-04T23:16:04.203Z,88.50
2023-02-04T23:18:37.367Z,89.20
2023-02-04T23:21:10.448Z,88.90
2023-02-04T23:23:41.030Z,88.70
2023-02-04T23:26:11.968Z,88.80
2023-02-04T23:28:42.762Z,88.80
2023-02-04T23:31:13.915Z,89.10
2023-02-04T23:33:47.159Z,87.20
2023-02-04T23:36:18.569Z,87.90
2023-02-04T23:38:49.084Z,87.70
2023-02-04T23:41:20.097Z,88.10
2023-02-04T23:43:50.741Z,87.90
2023-02-04T23:46:21.795Z,87.60
2023-02-04T23:48:54.945Z,88.20
2023-02-04T23:51:26.097Z,88.70
2023-02-04T23:53:57.340Z,89.10
2023-02-04T23:56:28.438Z,89.30
2023-02-04T23:58:59.269Z,88.80
